Moose Factory, Canada
Current Conditions -  °F | °C
As of 9:00 AM on Friday 31 Oct 2014 (Local Time) from CYMO Reporting Station
Overcast Overcast  
Wind Chill: 18°   Ceiling: 6000
Heat Index: 28°   Visibility: 9mi
Dew Point: 23°   Wind: 13mph
Humidity: 80%   Direction: 310°NW
Pressure: 30.24"   Gusts: 22mph
Location:  51.26°N, 80.6°W
Report Text: CYMO 311300Z AUTO 31011G19KT 9SM OVC060 M02/M05 A3024 RMK SLP242
Loading
Personal Weather Stations






























Interactive Weather Map
Tropical Storm Tracking
New forecast layout! Learn more

10-Day Weather Forecast

Advertisements
Track Severe Weather on mobile